Time;durP1;ratioP1;P1;durP2;ratioP2;P2;SDS_P1;SDS_P2;PMS_P1;PMS_P2;Temp;Humidity;BMP_temperature;BMP_pressure;BME280_temperature;BME280_humidity;BME280_pressure;Samples;Min_cycle;Max_cycle;Signal;HPM_P1;HPM_P2
2021/01/31 00:00:39;;;;;;;21.90;10.93;;;-4.40;99.90;;;;;;5001060;28;20030;-71
2021/01/31 00:03:08;;;;;;;24.42;11.40;;;-4.50;99.90;;;;;;5001418;28;20863;-71
2021/01/31 00:05:34;;;;;;;26.25;12.00;;;-4.70;99.90;;;;;;5004616;28;20775;-71
2021/01/31 00:08:00;;;;;;;24.88;12.25;;;-4.60;99.90;;;;;;5003958;28;20070;-71
2021/01/31 00:10:29;;;;;;;24.70;11.65;;;-4.60;99.90;;;;;;5006005;28;20067;-71
2021/01/31 00:12:56;;;;;;;18.95;10.23;;;-4.60;99.90;;;;;;5004832;28;20030;-72
2021/01/31 00:15:26;;;;;;;18.63;10.52;;;-4.50;99.90;;;;;;5004163;28;20033;-67
2021/01/31 00:17:52;;;;;;;127.68;12.82;;;-4.40;99.90;;;;;;5005662;28;20057;-74
2021/01/31 00:20:20;;;;;;;99.35;14.07;;;-4.40;99.90;;;;;;4999773;28;20096;-70
2021/01/31 00:22:46;;;;;;;41.58;11.57;;;-4.20;99.90;;;;;;5006058;28;20061;-70
2021/01/31 00:25:13;;;;;;;35.00;11.20;;;-4.20;99.90;;;;;;5004137;28;20457;-70
2021/01/31 00:27:39;;;;;;;23.30;11.55;;;-4.20;99.90;;;;;;5005228;28;20033;-70
2021/01/31 00:30:15;;;;;;;22.23;10.32;;;-4.30;99.90;;;;;;5005216;28;20065;-70
2021/01/31 00:32:41;;;;;;;22.27;11.30;;;-4.40;99.90;;;;;;5003501;28;20072;-70
2021/01/31 00:35:07;;;;;;;31.80;12.38;;;-4.40;99.90;;;;;;5004841;28;20844;-70
2021/01/31 00:37:33;;;;;;;39.22;12.70;;;-4.40;99.90;;;;;;5005376;28;20041;-70
2021/01/31 00:39:58;;;;;;;56.78;13.18;;;-4.40;99.90;;;;;;5005064;28;20033;-70
2021/01/31 00:42:24;;;;;;;28.52;13.13;;;-4.40;99.90;;;;;;5018820;28;20049;-70
2021/01/31 00:44:52;;;;;;;21.10;10.95;;;-4.40;99.90;;;;;;5003295;28;20030;-70
2021/01/31 00:47:19;;;;;;;23.80;11.80;;;-4.50;99.90;;;;;;5017255;28;20077;-70
2021/01/31 00:49:47;;;;;;;61.95;13.27;;;-4.50;99.90;;;;;;5019731;28;20038;-70
2021/01/31 00:52:13;;;;;;;36.28;12.07;;;-4.50;99.90;;;;;;5004284;28;20033;-70
2021/01/31 00:54:39;;;;;;;55.05;13.43;;;-4.50;99.90;;;;;;5019120;28;20553;-70
2021/01/31 00:57:07;;;;;;;30.90;13.40;;;-4.60;99.90;;;;;;5018773;28;20517;-70
2021/01/31 00:59:34;;;;;;;28.92;13.05;;;-4.50;99.90;;;;;;5018409;28;20319;-70
2021/01/31 01:02:00;;;;;;;25.13;12.23;;;-4.60;99.90;;;;;;5017954;28;20556;-70
2021/01/31 01:04:28;;;;;;;61.35;13.73;;;-4.60;99.90;;;;;;5018601;28;20040;-70
2021/01/31 01:07:03;;;;;;;;;;;-4.70;99.90;;;;;;5019715;28;20117;-70
2021/01/31 01:09:29;;;;;;;54.92;14.57;;;-4.60;99.90;;;;;;5003645;28;20068;-70
2021/01/31 01:11:54;;;;;;;61.40;12.05;;;-4.50;99.90;;;;;;5004101;28;20375;-70
2021/01/31 01:14:20;;;;;;;68.05;13.35;;;-4.50;99.90;;;;;;5003434;28;20037;-70
2021/01/31 01:16:46;;;;;;;26.75;12.15;;;-4.50;99.90;;;;;;5002485;28;20072;-70
2021/01/31 01:19:11;;;;;;;54.33;13.43;;;-4.60;99.90;;;;;;5002094;28;20073;-70
2021/01/31 01:21:37;;;;;;;23.45;12.00;;;-4.70;99.90;;;;;;5004010;28;20065;-70
2021/01/31 01:24:03;;;;;;;33.58;14.00;;;-4.70;99.90;;;;;;5003120;28;20022;-70
2021/01/31 01:26:32;;;;;;;38.60;15.88;;;-4.80;99.90;;;;;;5003427;28;20522;-70
2021/01/31 01:28:58;;;;;;;47.80;18.85;;;-4.90;99.90;;;;;;5003363;28;20088;-71
2021/01/31 01:31:24;;;;;;;40.42;15.38;;;-5.00;99.90;;;;;;5003235;28;20042;-70
2021/01/31 01:33:50;;;;;;;28.17;13.15;;;-5.10;99.90;;;;;;5002664;28;20022;-70
2021/01/31 01:36:16;;;;;;;32.72;14.27;;;-5.10;99.90;;;;;;5002322;28;20127;-71
2021/01/31 01:38:42;;;;;;;37.60;15.45;;;-5.20;99.90;;;;;;5002802;28;20030;-71
2021/01/31 01:41:08;;;;;;;34.60;13.82;;;-5.30;99.90;;;;;;5000556;28;20486;-70
2021/01/31 01:43:34;;;;;;;40.72;14.75;;;-5.50;99.90;;;;;;5017604;28;20129;-70
2021/01/31 01:46:14;;;;;;;50.45;14.50;;;-5.60;99.90;;;;;;5002026;28;20026;-70
2021/01/31 01:48:40;;;;;;;38.30;14.93;;;-5.80;99.90;;;;;;5002587;28;20063;-70
2021/01/31 01:51:07;;;;;;;34.03;14.15;;;-5.80;99.90;;;;;;5003127;28;20439;-70
2021/01/31 01:53:34;;;;;;;32.38;13.85;;;-5.70;99.90;;;;;;5018227;28;20030;-70
2021/01/31 01:56:15;;;;;;;39.25;14.20;;;-5.70;99.90;;;;;;5002562;28;20504;-70
2021/01/31 01:58:42;;;;;;;36.55;13.43;;;-5.80;99.90;;;;;;5002585;28;20041;-70
2021/01/31 02:01:08;;;;;;;27.80;12.05;;;-6.10;99.90;;;;;;5000261;28;20136;-70
2021/01/31 02:03:38;;;;;;;29.42;12.68;;;-6.20;99.90;;;;;;5015769;28;20060;-70
2021/01/31 02:06:19;;;;;;;27.17;11.52;;;-6.20;99.90;;;;;;5001397;28;20577;-70
2021/01/31 02:08:46;;;;;;;26.27;12.02;;;-6.20;99.90;;;;;;5001605;28;20034;-70
2021/01/31 02:11:15;;;;;;;28.85;13.23;;;-6.20;99.90;;;;;;5001422;28;20048;-70
2021/01/31 02:13:45;;;;;;;27.73;12.90;;;-6.30;99.90;;;;;;5002599;28;20034;-70
2021/01/31 02:16:18;;;;;;;29.45;12.40;;;-6.30;99.90;;;;;;5000612;28;20065;-70
2021/01/31 02:19:10;;;;;;;24.25;10.85;;;-6.30;99.90;;;;;;5002517;28;20060;-70
2021/01/31 02:22:00;;;;;;;29.27;12.80;;;-6.30;99.90;;;;;;5017535;28;20048;-70
2021/01/31 02:24:47;;;;;;;28.10;11.30;;;-6.30;99.90;;;;;;5001559;28;20100;-71
2021/01/31 02:27:16;;;;;;;41.17;10.73;;;-6.30;99.90;;;;;;5017187;28;20112;-70
2021/01/31 02:30:12;;;;;;;22.67;9.45;;;-6.30;99.90;;;;;;5002353;28;20686;-71
2021/01/31 02:32:56;;;;;;;;;;;-6.10;99.90;;;;;;5002617;28;20387;-70
2021/01/31 02:35:27;;;;;;;72.68;8.68;;;-6.20;99.90;;;;;;5001253;28;19921;-70
2021/01/31 02:38:26;;;;;;;22.23;10.02;;;-6.10;99.90;;;;;;5002027;28;20551;-70
2021/01/31 02:41:03;;;;;;;18.40;8.38;;;-6.10;99.90;;;;;;5002370;28;20037;-71
2021/01/31 02:43:41;;;;;;;16.05;8.70;;;-6.20;99.90;;;;;;5002514;28;20167;-70
2021/01/31 02:46:21;;;;;;;60.67;10.10;;;-6.10;99.90;;;;;;4999742;28;20038;-71
2021/01/31 02:49:11;;;;;;;45.42;10.48;;;-6.20;99.90;;;;;;5016882;28;20064;-71
2021/01/31 02:51:49;;;;;;;17.77;9.23;;;-6.10;99.90;;;;;;4998454;28;20611;-70
2021/01/31 02:54:24;;;;;;;19.42;9.40;;;-6.10;99.90;;;;;;4999755;28;20033;-71
2021/01/31 02:56:55;;;;;;;35.60;9.88;;;-6.20;99.90;;;;;;5015600;28;20030;-71
2021/01/31 02:59:29;;;;;;;18.60;9.30;;;-6.30;99.90;;;;;;4997194;28;20063;-71
2021/01/31 03:02:14;;;;;;;16.35;8.38;;;-6.20;99.90;;;;;;5000735;28;20038;-71
2021/01/31 03:04:52;;;;;;;20.83;9.97;;;-6.30;99.90;;;;;;5016978;28;20128;-71
2021/01/31 03:07:29;;;;;;;20.10;9.85;;;-6.30;99.90;;;;;;5000666;28;20922;-71
2021/01/31 03:10:27;;;;;;;30.50;10.50;;;-6.30;99.90;;;;;;4999979;28;20512;-72
2021/01/31 03:12:59;;;;;;;44.25;11.00;;;-6.30;99.90;;;;;;5001686;28;20498;-72
2021/01/31 03:15:29;;;;;;;21.85;9.77;;;-6.30;99.90;;;;;;5001502;28;20030;-73
2021/01/31 03:18:06;;;;;;;20.80;9.55;;;-6.30;99.90;;;;;;5000045;28;20034;-71
2021/01/31 03:20:37;;;;;;;21.92;10.38;;;-6.40;99.90;;;;;;5002143;28;20030;-71
2021/01/31 03:23:29;;;;;;;18.33;9.40;;;-6.50;99.90;;;;;;5001549;28;20623;-70
2021/01/31 03:26:00;;;;;;;20.65;9.68;;;-6.50;99.90;;;;;;5016217;28;20132;-70
2021/01/31 03:28:25;;;;;;;29.08;9.43;;;-6.50;99.90;;;;;;5001845;28;20069;-71
2021/01/31 03:30:52;;;;;;;33.85;10.90;;;-6.40;99.90;;;;;;5001623;28;20129;-71
2021/01/31 03:33:25;;;;;;;19.08;9.55;;;-6.40;99.90;;;;;;5002091;28;20038;-70
2021/01/31 03:35:53;;;;;;;18.23;9.15;;;-6.30;99.90;;;;;;5000947;28;20030;-71
2021/01/31 03:38:37;;;;;;;20.05;10.38;;;-6.30;99.90;;;;;;5003439;28;20046;-71
2021/01/31 03:41:10;;;;;;;160.80;12.70;;;-6.30;99.90;;;;;;5005624;28;20041;-71
2021/01/31 03:43:35;;;;;;;157.05;11.98;;;-6.30;99.90;;;;;;5005790;28;20034;-71
2021/01/31 03:46:22;;;;;;;18.60;9.52;;;-6.30;99.90;;;;;;5019789;28;20045;-70
2021/01/31 03:49:02;;;;;;;48.70;9.23;;;-6.40;99.90;;;;;;5006104;28;20038;-71
2021/01/31 03:51:29;;;;;;;165.65;12.57;;;-6.50;99.90;;;;;;5005156;28;20030;-70
2021/01/31 03:53:56;;;;;;;18.05;9.07;;;-6.50;99.90;;;;;;5005277;28;20080;-70
2021/01/31 03:56:27;;;;;;;101.63;11.10;;;-6.50;99.90;;;;;;5005471;28;20045;-70
2021/01/31 03:58:56;;;;;;;17.75;9.20;;;-6.50;99.90;;;;;;5019813;28;20049;-71
2021/01/31 04:01:27;;;;;;;61.42;10.85;;;-6.50;99.90;;;;;;5020469;28;20030;-71
2021/01/31 04:04:11;;;;;;;22.17;10.20;;;-6.50;99.90;;;;;;5005490;28;20037;-71
2021/01/31 04:06:38;;;;;;;26.58;10.13;;;-6.40;99.90;;;;;;5005227;28;20038;-71
2021/01/31 04:09:06;;;;;;;23.75;9.45;;;-6.40;99.90;;;;;;5004397;28;20061;-71
2021/01/31 04:11:41;;;;;;;58.50;11.93;;;-6.40;99.90;;;;;;5020290;28;20037;-71
2021/01/31 04:14:16;;;;;;;;;;;-6.40;99.90;;;;;;5004032;28;20788;-70
2021/01/31 04:16:50;;;;;;;55.60;8.70;;;-6.40;99.90;;;;;;5004568;28;19948;-71
2021/01/31 04:19:16;;;;;;;37.58;9.35;;;-6.40;99.90;;;;;;5004774;28;20193;-71
2021/01/31 04:21:42;;;;;;;17.00;8.93;;;-6.40;99.90;;;;;;5004745;28;20101;-71
2021/01/31 04:24:07;;;;;;;21.05;9.60;;;-6.40;99.90;;;;;;5004730;28;20489;-70
2021/01/31 04:26:34;;;;;;;19.92;9.82;;;-6.30;99.90;;;;;;5004213;28;20034;-71
2021/01/31 04:29:00;;;;;;;40.97;10.15;;;-6.30;99.90;;;;;;5004119;28;20195;-71
2021/01/31 04:31:29;;;;;;;19.63;9.63;;;-6.30;99.90;;;;;;5018912;28;20041;-71
2021/01/31 04:33:55;;;;;;;49.40;10.73;;;-6.30;99.90;;;;;;5004659;28;20038;-71
2021/01/31 04:36:23;;;;;;;19.10;8.73;;;-6.30;99.90;;;;;;5004473;28;20037;-71
2021/01/31 04:38:49;;;;;;;71.25;10.10;;;-6.30;99.90;;;;;;5004181;28;20136;-70
2021/01/31 04:41:15;;;;;;;14.50;7.05;;;-6.30;99.90;;;;;;5004366;28;20140;-71
2021/01/31 04:43:42;;;;;;;15.70;7.78;;;-6.40;99.90;;;;;;5002947;28;20033;-71
2021/01/31 04:46:16;;;;;;;16.05;7.30;;;-6.40;99.90;;;;;;5003447;28;20041;-71
2021/01/31 04:49:06;;;;;;;16.55;7.88;;;-6.40;99.90;;;;;;5003935;28;20038;-71
2021/01/31 04:51:56;;;;;;;15.73;7.75;;;-6.40;99.90;;;;;;5019472;28;20034;-71
2021/01/31 04:54:42;;;;;;;14.68;6.53;;;-6.40;99.90;;;;;;5019282;28;20117;-71
2021/01/31 04:57:14;;;;;;;16.98;6.95;;;-6.40;99.90;;;;;;5004230;28;20129;-71
2021/01/31 04:59:48;;;;;;;14.80;6.57;;;-6.40;99.90;;;;;;5003527;28;20049;-71
2021/01/31 05:02:19;;;;;;;15.98;7.43;;;-6.40;99.90;;;;;;5004499;28;20383;-71
2021/01/31 05:04:54;;;;;;;17.88;7.20;;;-6.40;99.90;;;;;;5003792;28;20804;-71
2021/01/31 05:07:24;;;;;;;15.35;6.82;;;-6.40;99.90;;;;;;5003067;28;20026;-71
2021/01/31 05:09:50;;;;;;;14.90;6.65;;;-6.40;99.90;;;;;;5003501;28;20064;-71
2021/01/31 05:12:27;;;;;;;17.00;7.72;;;-6.30;99.90;;;;;;5003453;28;20034;-71
2021/01/31 05:15:18;;;;;;;15.48;7.13;;;-6.30;99.90;;;;;;5002872;28;20141;-71
2021/01/31 05:17:46;;;;;;;14.32;6.82;;;-6.30;99.90;;;;;;5003971;28;20057;-71
2021/01/31 05:20:13;;;;;;;17.23;7.18;;;-6.20;99.90;;;;;;5018492;28;20061;-70
2021/01/31 05:22:44;;;;;;;16.00;6.82;;;-6.10;99.90;;;;;;5003430;28;20065;-70
2021/01/31 05:25:14;;;;;;;25.55;8.60;;;-6.30;99.90;;;;;;5001616;28;20046;-71
2021/01/31 05:27:40;;;;;;;20.95;8.52;;;-6.30;99.90;;;;;;5003929;28;20065;-70
2021/01/31 05:30:07;;;;;;;19.83;8.70;;;-6.30;99.90;;;;;;5003158;28;20030;-71
2021/01/31 05:32:58;;;;;;;20.42;8.55;;;-6.30;99.90;;;;;;5003721;28;20030;-70
2021/01/31 05:35:27;;;;;;;19.17;7.63;;;-6.40;99.90;;;;;;5003406;28;20088;-70
2021/01/31 05:37:52;;;;;;;90.07;8.45;;;-6.60;99.90;;;;;;5001147;28;20049;-71
2021/01/31 05:40:30;;;;;;;16.92;8.00;;;-6.50;99.90;;;;;;5018097;28;20042;-71
2021/01/31 05:42:57;;;;;;;53.78;10.50;;;-6.50;99.90;;;;;;5003140;28;20132;-70
2021/01/31 05:45:22;;;;;;;25.42;9.10;;;-6.60;99.90;;;;;;5003297;28;20049;-71
2021/01/31 05:47:50;;;;;;;17.20;6.68;;;-6.60;99.90;;;;;;5002654;28;20057;-71
2021/01/31 05:50:34;;;;;;;15.60;7.10;;;-6.60;99.90;;;;;;5003162;28;20030;-72
2021/01/31 05:53:20;;;;;;;34.53;7.05;;;-6.60;99.90;;;;;;5000826;28;20026;-70
2021/01/31 05:55:45;;;;;;;17.48;7.38;;;-6.70;99.90;;;;;;5001233;28;20085;-70
2021/01/31 05:58:23;;;;;;;18.60;8.23;;;-6.80;99.90;;;;;;5017152;28;20060;-70
2021/01/31 06:01:05;;;;;;;15.82;6.78;;;-6.80;99.90;;;;;;5002390;28;20049;-70
2021/01/31 06:03:31;;;;;;;19.05;7.75;;;-6.80;99.90;;;;;;5015959;28;20497;-70
2021/01/31 06:06:14;;;;;;;17.92;8.50;;;-6.90;99.90;;;;;;5014671;28;20068;-70
2021/01/31 06:08:46;;;;;;;20.95;8.35;;;-7.00;99.90;;;;;;5017947;28;20030;-71
2021/01/31 06:11:27;;;;;;;20.15;7.53;;;-7.00;99.90;;;;;;5002971;28;20347;-70
2021/01/31 06:14:13;;;;;;;18.85;8.35;;;-7.10;99.90;;;;;;5002015;28;20030;-70
2021/01/31 06:16:40;;;;;;;21.20;7.63;;;-7.10;99.90;;;;;;5017054;28;20030;-70
2021/01/31 06:19:10;;;;;;;23.02;8.70;;;-7.10;99.90;;;;;;5014850;28;20026;-72
2021/01/31 06:21:46;;;;;;;22.50;8.57;;;-7.10;99.90;;;;;;5014466;28;20038;-70
2021/01/31 06:24:43;;;;;;;25.45;8.98;;;-7.20;99.90;;;;;;5002279;28;20052;-71
2021/01/31 06:27:13;;;;;;;22.48;8.75;;;-7.20;99.90;;;;;;4985852;28;20052;-71
2021/01/31 06:29:53;;;;;;;21.95;8.57;;;-7.30;99.90;;;;;;5001971;28;20038;-71
2021/01/31 06:32:25;;;;;;;20.05;8.45;;;-7.30;99.90;;;;;;5010657;28;20037;-71
2021/01/31 06:34:56;;;;;;;24.00;8.80;;;-7.40;99.90;;;;;;4996530;28;20180;-72
2021/01/31 06:38:00;;;;;;;22.98;9.00;;;-7.40;99.90;;;;;;5017389;28;20034;-72
2021/01/31 06:40:55;;;;;;;29.55;10.82;;;-7.40;99.90;;;;;;4997934;28;20034;-72
2021/01/31 06:43:39;;;;;;;21.30;8.20;;;-7.40;99.90;;;;;;4993025;28;20944;-71
2021/01/31 06:46:15;;;;;;;23.73;8.68;;;-7.50;99.90;;;;;;5000136;28;20049;-72
2021/01/31 06:49:00;;;;;;;19.85;7.72;;;-7.50;99.90;;;;;;4997822;28;20180;-72
2021/01/31 06:51:56;;;;;;;22.20;8.63;;;-7.50;99.90;;;;;;5001710;28;20038;-71
2021/01/31 06:54:37;;;;;;;25.30;8.45;;;-7.70;99.90;;;;;;5011589;28;20494;-71
2021/01/31 06:57:36;;;;;;;20.45;8.27;;;-7.70;99.90;;;;;;5014940;28;20187;-71
2021/01/31 07:00:41;;;;;;;21.25;8.30;;;-7.80;99.90;;;;;;5012340;28;20037;-71
2021/01/31 07:03:16;;;;;;;18.45;7.22;;;-7.90;99.90;;;;;;4996717;28;20320;-70
2021/01/31 07:05:42;;;;;;;;;;;-8.00;99.90;;;;;;5001104;28;20454;-69
2021/01/31 07:08:19;;;;;;;19.70;7.57;;;-8.10;99.90;;;;;;5000971;28;20016;-69
2021/01/31 07:11:15;;;;;;;17.00;7.35;;;-8.10;99.90;;;;;;4998921;28;20034;-71
2021/01/31 07:14:16;;;;;;;18.63;7.47;;;-8.00;99.90;;;;;;5008402;28;20360;-72
2021/01/31 07:16:48;;;;;;;26.30;9.40;;;-7.80;99.90;;;;;;4998376;28;20513;-71
2021/01/31 07:19:14;;;;;;;22.55;9.30;;;-7.70;99.90;;;;;;5001526;28;20034;-70
2021/01/31 07:21:49;;;;;;;23.00;8.73;;;-7.50;99.90;;;;;;4997268;28;20033;-70
2021/01/31 07:24:22;;;;;;;28.38;10.18;;;-7.40;99.90;;;;;;4999637;28;20541;-70
2021/01/31 07:26:57;;;;;;;32.53;12.60;;;-7.40;99.90;;;;;;4997085;28;20856;-71
2021/01/31 07:29:38;;;;;;;38.45;15.10;;;-7.30;99.90;;;;;;4995472;28;20394;-70
2021/01/31 07:32:11;;;;;;;46.22;18.90;;;-7.20;99.90;;;;;;5000326;28;20700;-70
2021/01/31 07:34:52;;;;;;;44.75;19.42;;;-7.20;99.90;;;;;;5000642;28;20030;-72
2021/01/31 07:37:20;;;;;;;49.00;21.63;;;-7.10;99.90;;;;;;4988298;28;20462;-72
2021/01/31 07:40:10;;;;;;;40.60;18.13;;;-6.90;99.90;;;;;;4999332;28;20486;-68
2021/01/31 07:42:39;;;;;;;27.02;11.80;;;-6.80;99.90;;;;;;5000003;28;20045;-71
2021/01/31 07:45:15;;;;;;;31.33;13.32;;;-6.60;99.90;;;;;;5001251;28;20084;-70
2021/01/31 07:47:41;;;;;;;32.50;14.88;;;-6.40;99.90;;;;;;5003017;28;20116;-70
2021/01/31 07:50:07;;;;;;;29.10;12.75;;;-6.40;99.90;;;;;;4998875;28;20477;-70
2021/01/31 07:52:54;;;;;;;35.72;15.77;;;-6.20;99.90;;;;;;5008839;28;20129;-70
2021/01/31 07:55:33;;;;;;;21.85;9.43;;;-6.10;99.90;;;;;;5002339;28;20038;-70
2021/01/31 07:58:19;;;;;;;28.58;13.20;;;-5.90;99.90;;;;;;4999555;28;20038;-70
2021/01/31 08:00:49;;;;;;;30.58;14.35;;;-5.90;99.90;;;;;;5003729;28;20041;-72
2021/01/31 08:03:37;;;;;;;22.88;9.85;;;-5.70;99.90;;;;;;5013520;28;20073;-73
2021/01/31 08:06:27;;;;;;;20.27;9.75;;;-5.40;99.90;;;;;;4997765;28;20116;-72
2021/01/31 08:08:54;;;;;;;16.95;8.63;;;-5.10;99.90;;;;;;4998783;28;20054;-71
2021/01/31 08:11:19;;;;;;;13.90;7.05;;;-4.90;99.90;;;;;;5000371;28;20034;-71
2021/01/31 08:13:48;;;;;;;12.10;6.43;;;-4.70;99.90;;;;;;5014833;28;20738;-71
2021/01/31 08:16:47;;;;;;;16.55;8.07;;;-4.70;99.90;;;;;;4997619;28;20034;-71
2021/01/31 08:19:12;;;;;;;16.83;7.10;;;-4.20;99.90;;;;;;5000261;28;20034;-72
2021/01/31 08:21:53;;;;;;;14.20;7.28;;;-3.80;99.90;;;;;;5016763;28;20037;-71
2021/01/31 08:24:58;;;;;;;13.63;6.85;;;-3.60;99.90;;;;;;5018290;28;20029;-71
2021/01/31 08:27:42;;;;;;;21.35;8.32;;;-3.30;99.90;;;;;;5006651;28;20063;-71
2021/01/31 08:30:32;;;;;;;21.48;7.97;;;-3.20;99.90;;;;;;5002698;28;20033;-71
2021/01/31 08:33:05;;;;;;;79.82;16.13;;;-3.10;99.90;;;;;;4985387;28;21198;-71
2021/01/31 08:35:33;;;;;;;22.23;6.85;;;-3.10;99.90;;;;;;5002673;28;20034;-71
2021/01/31 08:38:42;;;;;;;15.70;6.53;;;-3.10;99.90;;;;;;5008393;28;20040;-71
2021/01/31 08:41:17;;;;;;;40.33;10.27;;;-3.30;99.90;;;;;;5011410;28;20050;-71
2021/01/31 08:43:49;;;;;;;27.25;8.70;;;-3.10;99.90;;;;;;5003378;28;20037;-75
2021/01/31 08:46:31;;;;;;;40.15;11.73;;;-2.90;99.90;;;;;;5003523;28;20444;-73
2021/01/31 08:49:09;;;;;;;53.22;15.63;;;-2.80;99.90;;;;;;5017608;28;20893;-73
2021/01/31 08:51:41;;;;;;;41.42;11.80;;;-2.50;99.90;;;;;;4999301;28;20036;-72
2021/01/31 08:54:10;;;;;;;29.27;10.25;;;-2.60;99.90;;;;;;5011378;28;20022;-72
2021/01/31 08:56:38;;;;;;;28.58;9.88;;;-2.40;99.90;;;;;;5004119;28;20037;-72
2021/01/31 08:59:06;;;;;;;39.08;11.02;;;-2.20;99.90;;;;;;5018973;28;20140;-72
2021/01/31 09:01:43;;;;;;;37.92;14.30;;;-1.90;99.90;;;;;;5003153;28;20029;-73
2021/01/31 09:04:12;;;;;;;57.40;27.02;;;-1.40;99.90;;;;;;5015173;28;20037;-72
2021/01/31 09:06:44;;;;;;;60.17;26.40;;;-1.00;99.90;;;;;;5003536;28;20123;-72
2021/01/31 09:09:52;;;;;;;54.22;24.90;;;-0.90;99.90;;;;;;5003791;28;20030;-72
2021/01/31 09:12:21;;;;;;;59.65;26.40;;;-0.50;99.90;;;;;;4935554;29;20110;-72
2021/01/31 09:14:47;;;;;;;34.28;13.90;;;-0.30;99.90;;;;;;4993210;28;20551;-72
2021/01/31 09:17:26;;;;;;;27.08;11.23;;;-0.20;99.90;;;;;;5002430;28;20153;-72
2021/01/31 09:20:18;;;;;;;37.10;15.38;;;0.00;99.90;;;;;;5003332;28;20088;-72
2021/01/31 09:22:50;;;;;;;27.02;10.65;;;0.00;99.90;;;;;;4992863;28;20549;-72
2021/01/31 09:25:20;;;;;;;31.35;10.57;;;0.10;99.90;;;;;;5002125;28;20573;-72
2021/01/31 09:27:57;;;;;;;19.50;9.63;;;-0.40;99.90;;;;;;5002904;28;20042;-72
2021/01/31 09:30:23;;;;;;;23.45;9.73;;;-0.20;99.90;;;;;;5018835;28;20121;-72
2021/01/31 09:32:52;;;;;;;29.58;12.25;;;-0.40;99.90;;;;;;5011605;28;20034;-72
2021/01/31 09:35:25;;;;;;;23.30;10.40;;;-0.40;99.90;;;;;;5002505;28;20041;-72
2021/01/31 09:37:53;;;;;;;33.92;11.98;;;-0.40;99.90;;;;;;5018098;28;20038;-73
2021/01/31 09:40:20;;;;;;;37.72;12.27;;;-0.30;99.90;;;;;;4992172;28;20853;-72
2021/01/31 09:42:46;;;;;;;25.70;9.77;;;-0.20;99.90;;;;;;5001476;28;20045;-79
2021/01/31 09:45:38;;;;;;;45.85;23.17;;;-0.10;99.90;;;;;;5002358;28;20053;-73
2021/01/31 09:48:12;;;;;;;20.20;10.55;;;-0.10;99.90;;;;;;5001847;28;20034;-73
2021/01/31 09:50:38;;;;;;;33.30;12.97;;;-0.30;99.90;;;;;;5001931;28;20106;-73
2021/01/31 09:53:05;;;;;;;25.85;14.23;;;-0.30;99.90;;;;;;5002297;28;20068;-73
2021/01/31 09:55:42;;;;;;;29.83;14.80;;;-0.10;99.90;;;;;;5001237;28;20033;-73
2021/01/31 09:58:40;;;;;;;45.72;19.33;;;0.00;99.90;;;;;;5016869;28;20037;-73
2021/01/31 10:01:15;;;;;;;26.15;14.07;;;0.00;99.90;;;;;;5012552;28;20042;-73
2021/01/31 10:03:41;;;;;;;21.60;10.32;;;0.10;99.90;;;;;;4999788;28;20594;-73
2021/01/31 10:06:16;;;;;;;17.25;9.55;;;0.10;99.90;;;;;;5001623;28;20038;-72
2021/01/31 10:08:55;;;;;;;20.17;10.47;;;0.30;99.90;;;;;;5016605;28;20045;-73
2021/01/31 10:11:28;;;;;;;36.10;12.75;;;0.20;99.90;;;;;;5010348;28;20033;-73
2021/01/31 10:13:54;;;;;;;22.40;10.38;;;0.10;99.90;;;;;;4999738;28;20057;-73
2021/01/31 10:16:28;;;;;;;31.58;10.90;;;0.10;99.90;;;;;;5001732;28;20080;-73
2021/01/31 10:19:04;;;;;;;24.38;10.55;;;0.20;99.90;;;;;;5007015;28;20038;-73
2021/01/31 10:21:35;;;;;;;29.35;10.48;;;0.10;99.90;;;;;;5002045;28;20112;-73
2021/01/31 10:24:18;;;;;;;18.05;9.15;;;0.40;99.90;;;;;;5017172;28;20069;-73
2021/01/31 10:26:45;;;;;;;21.05;9.60;;;0.50;99.90;;;;;;5001272;28;20116;-73
2021/01/31 10:29:30;;;;;;;16.98;8.98;;;0.50;99.90;;;;;;5014273;28;20038;-73
2021/01/31 10:32:16;;;;;;;24.42;11.80;;;0.70;99.90;;;;;;5011167;28;20037;-72
2021/01/31 10:34:41;;;;;;;;;;;0.80;99.90;;;;;;4996006;28;20117;-73
2021/01/31 10:37:19;;;;;;;25.20;10.05;;;0.90;99.90;;;;;;5015782;28;19971;-73
2021/01/31 10:39:46;;;;;;;17.33;9.38;;;1.10;99.90;;;;;;5000975;28;20034;-72
2021/01/31 10:42:12;;;;;;;28.55;11.25;;;1.10;99.90;;;;;;5001941;28;20034;-73
2021/01/31 10:44:38;;;;;;;17.42;9.30;;;1.20;99.90;;;;;;5000651;28;20052;-72
2021/01/31 10:47:04;;;;;;;17.02;9.25;;;1.10;99.90;;;;;;4999981;28;20029;-73
2021/01/31 10:49:29;;;;;;;19.73;10.30;;;0.80;99.90;;;;;;5001294;28;20033;-74
2021/01/31 10:51:56;;;;;;;20.15;9.95;;;0.80;99.90;;;;;;5010025;28;20050;-73
2021/01/31 10:54:22;;;;;;;17.33;9.75;;;0.90;99.90;;;;;;4998135;28;20053;-74
2021/01/31 10:56:48;;;;;;;19.33;10.05;;;1.10;99.90;;;;;;5014457;28;20034;-73
2021/01/31 10:59:14;;;;;;;15.00;8.15;;;1.20;99.90;;;;;;5014467;28;20402;-73
2021/01/31 11:01:48;;;;;;;18.23;9.32;;;1.30;99.90;;;;;;5001251;28;20049;-73
2021/01/31 11:04:16;;;;;;;35.55;11.05;;;1.40;99.90;;;;;;5002255;28;20128;-73
2021/01/31 11:06:43;;;;;;;37.53;11.93;;;1.50;99.90;;;;;;5000413;28;20044;-73
2021/01/31 11:09:10;;;;;;;17.92;9.70;;;1.70;99.90;;;;;;4999314;28;20029;-73
2021/01/31 11:11:37;;;;;;;17.08;9.30;;;1.60;99.90;;;;;;5000463;28;20080;-72
2021/01/31 11:14:04;;;;;;;19.48;9.75;;;2.00;99.90;;;;;;4999877;28;20022;-71
2021/01/31 11:16:30;;;;;;;35.33;13.15;;;2.20;99.90;;;;;;5000508;28;20033;-71
2021/01/31 11:18:55;;;;;;;23.25;13.02;;;2.40;99.90;;;;;;4995630;28;20037;-70
2021/01/31 11:21:25;;;;;;;14.85;8.63;;;2.40;99.90;;;;;;5001445;28;20116;-71
2021/01/31 11:23:53;;;;;;;16.63;7.75;;;2.50;99.90;;;;;;5001368;28;20038;-71
2021/01/31 11:26:18;;;;;;;13.25;6.57;;;2.50;99.90;;;;;;5016999;28;20119;-71
2021/01/31 11:28:44;;;;;;;18.05;8.43;;;2.40;99.90;;;;;;4999815;28;20108;-71
2021/01/31 11:31:11;;;;;;;13.00;6.63;;;2.60;99.90;;;;;;5001580;28;20049;-73
2021/01/31 11:33:37;;;;;;;13.32;7.70;;;2.80;99.90;;;;;;5002306;28;20045;-73
2021/01/31 11:36:04;;;;;;;17.50;10.05;;;3.00;99.90;;;;;;4997908;28;20144;-72
2021/01/31 11:38:30;;;;;;;13.75;7.35;;;3.20;99.90;;;;;;5015352;28;20129;-72
2021/01/31 11:40:56;;;;;;;20.50;9.57;;;3.20;99.90;;;;;;5015169;28;20758;-72
2021/01/31 11:43:22;;;;;;;14.57;8.00;;;3.20;99.90;;;;;;5015928;28;20204;-72
2021/01/31 11:45:48;;;;;;;21.27;11.32;;;3.30;99.90;;;;;;4998704;28;20046;-72
2021/01/31 11:48:14;;;;;;;16.13;8.45;;;3.20;99.50;;;;;;4999581;28;20041;-72
2021/01/31 11:50:40;;;;;;;13.15;7.10;;;3.20;99.50;;;;;;5000592;28;20371;-72
2021/01/31 11:53:05;;;;;;;11.32;6.53;;;3.00;99.90;;;;;;5001334;28;20784;-72
2021/01/31 11:55:31;;;;;;;13.73;7.28;;;3.10;99.90;;;;;;4998978;28;20026;-72
2021/01/31 11:57:57;;;;;;;14.55;9.05;;;3.30;99.90;;;;;;4999443;28;20030;-72
2021/01/31 12:00:23;;;;;;;18.40;9.43;;;3.80;99.10;;;;;;5002406;28;20461;-72
2021/01/31 12:02:49;;;;;;;12.23;6.72;;;4.20;97.80;;;;;;5003639;28;20525;-72
2021/01/31 12:05:18;;;;;;;13.20;6.82;;;4.30;97.10;;;;;;5003353;28;20115;-72
2021/01/31 12:07:44;;;;;;;13.55;7.57;;;4.20;97.50;;;;;;5005569;28;20069;-72
2021/01/31 12:10:12;;;;;;;12.07;6.60;;;4.30;97.20;;;;;;5018887;28;20041;-72
2021/01/31 12:12:38;;;;;;;10.80;5.93;;;3.80;98.40;;;;;;5004588;28;20029;-72
2021/01/31 12:15:06;;;;;;;12.45;5.97;;;4.10;98.40;;;;;;5019729;28;20061;-72
2021/01/31 12:17:32;;;;;;;8.02;4.97;;;4.20;96.10;;;;;;5004251;28;20580;-72
2021/01/31 12:19:58;;;;;;;12.68;6.90;;;3.60;98.20;;;;;;5004028;28;20121;-72
2021/01/31 12:22:24;;;;;;;11.85;6.82;;;3.30;98.80;;;;;;5004213;28;20030;-71
2021/01/31 12:24:53;;;;;;;11.95;6.15;;;3.40;98.90;;;;;;5019443;28;20485;-72
2021/01/31 12:27:27;;;;;;;11.98;6.20;;;3.70;98.50;;;;;;5018545;28;20172;-72
2021/01/31 12:29:53;;;;;;;8.95;5.18;;;3.70;98.40;;;;;;4998499;28;20026;-72
2021/01/31 12:32:19;;;;;;;13.77;7.57;;;3.90;98.20;;;;;;5004479;28;20137;-74
2021/01/31 12:34:45;;;;;;;13.80;7.15;;;4.20;97.90;;;;;;5004620;28;20037;-74
2021/01/31 12:37:11;;;;;;;14.85;7.65;;;4.10;96.90;;;;;;5019416;28;20505;-74
2021/01/31 12:39:38;;;;;;;24.67;12.80;;;4.10;97.40;;;;;;5004067;28;20038;-74
2021/01/31 12:42:04;;;;;;;14.23;7.07;;;3.90;98.30;;;;;;5003604;28;20057;-72
2021/01/31 12:44:30;;;;;;;11.32;6.50;;;3.60;98.50;;;;;;5004217;28;20660;-72
2021/01/31 12:46:55;;;;;;;12.50;6.65;;;3.30;99.20;;;;;;5002956;28;20121;-72
2021/01/31 12:49:21;;;;;;;10.18;6.15;;;2.80;99.90;;;;;;5003735;28;20037;-73
2021/01/31 12:51:47;;;;;;;8.73;5.53;;;3.10;99.80;;;;;;5004102;28;20057;-72
2021/01/31 12:54:12;;;;;;;10.18;6.25;;;3.40;99.30;;;;;;5018293;28;20040;-72
2021/01/31 12:56:38;;;;;;;10.07;6.20;;;3.60;99.70;;;;;;5003694;28;20387;-72
2021/01/31 12:59:04;;;;;;;10.27;6.38;;;4.00;99.30;;;;;;5004006;28;20037;-72
2021/01/31 13:01:30;;;;;;;11.30;6.22;;;4.10;97.70;;;;;;5017961;28;20018;-73
2021/01/31 13:03:56;;;;;;;14.00;7.55;;;4.20;98.00;;;;;;4980344;28;20045;-73